Time;durP1;ratioP1;P1;durP2;ratioP2;P2;SDS_P1;SDS_P2;PMS_P1;PMS_P2;Temp;Humidity;BMP_temperature;BMP_pressure;BME280_temperature;BME280_humidity;BME280_pressure;Samples;Min_cycle;Max_cycle;Signal;HPM_P1;HPM_P2
2022/12/03 00:00:35;;;;;;;;;38.75;24.75;;;;;7.93;100.00;101487.16;5077205;28;59456;-76
2022/12/03 00:03:00;;;;;;;;;42.25;24.00;;;;;7.91;100.00;101483.59;5059555;28;52349;-76
2022/12/03 00:05:26;;;;;;;;;29.50;24.25;;;;;7.90;100.00;101493.22;5077054;28;45617;-76
2022/12/03 00:07:51;;;;;;;;;39.50;28.00;;;;;7.92;100.00;101502.03;5076786;28;60461;-76
2022/12/03 00:10:16;;;;;;;;;32.00;23.25;;;;;7.88;100.00;101490.56;5073523;28;61849;-76
2022/12/03 00:12:42;;;;;;;;;31.00;22.75;;;;;7.90;100.00;101490.59;5075946;28;60380;-75
2022/12/03 00:15:08;;;;;;;;;34.00;24.00;;;;;7.90;100.00;101490.59;5076307;28;61299;-75
2022/12/03 00:17:33;;;;;;;;;35.50;23.00;;;;;7.90;100.00;101489.72;5075945;28;45598;-76
2022/12/03 00:19:59;;;;;;;;;30.00;24.00;;;;;7.92;100.00;101485.38;5059527;28;45385;-76
2022/12/03 00:22:24;;;;;;;;;35.00;24.00;;;;;7.88;100.00;101477.41;5077297;28;56530;-76
2022/12/03 00:24:50;;;;;;;;;24.75;24.50;;;;;7.87;100.00;101475.59;5059741;28;66670;-76
2022/12/03 00:27:15;;;;;;;;;31.00;22.25;;;;;7.88;100.00;101473.84;5076982;28;63535;-76
2022/12/03 00:29:40;;;;;;;;;35.25;27.75;;;;;7.92;100.00;101477.50;5077295;28;57905;-76
2022/12/03 00:32:06;;;;;;;;;42.25;26.25;;;;;7.88;100.00;101477.41;5078337;28;45427;-76
2022/12/03 00:34:31;;;;;;;;;29.50;24.25;;;;;7.87;100.00;101467.72;5077347;28;68335;-76
2022/12/03 00:36:56;;;;;;;;;42.25;27.25;;;;;7.85;100.00;101472.03;5076345;28;59511;-75
2022/12/03 00:39:21;;;;;;;;;37.50;25.50;;;;;7.82;100.00;101474.56;5059456;28;58822;-76
2022/12/03 00:41:47;;;;;;;;;43.25;28.25;;;;;7.80;100.00;101471.00;5065476;28;50381;-76
2022/12/03 00:44:12;;;;;;;;;38.25;27.25;;;;;7.79;100.00;101460.44;5074475;28;61995;-76
2022/12/03 00:46:38;;;;;;;;;33.50;24.75;;;;;7.81;100.00;101462.25;5077809;28;53986;-75
2022/12/03 00:49:03;;;;;;;;;30.00;19.75;;;;;7.79;100.00;101452.56;5060209;28;45326;-75
2022/12/03 00:51:29;;;;;;;;;32.50;26.25;;;;;7.77;100.00;101456.84;5078374;28;45526;-76
2022/12/03 00:53:55;;;;;;;;;46.25;26.75;;;;;7.78;100.00;101454.28;5078018;28;46940;-76
2022/12/03 00:56:20;;;;;;;;;28.50;24.00;;;;;7.77;100.00;101459.47;5077790;28;59968;-76
2022/12/03 00:58:46;;;;;;;;;27.25;21.00;;;;;7.76;100.00;101455.06;5077208;28;49165;-76
2022/12/03 01:01:11;;;;;;;;;46.75;32.75;;;;;7.78;100.00;101464.81;5077281;28;55444;-76
2022/12/03 01:03:36;;;;;;;;;32.75;24.50;;;;;7.78;100.00;101461.28;5076725;28;64087;-76
2022/12/03 01:06:02;;;;;;;;;40.25;28.25;;;;;7.79;100.00;101458.69;5042980;28;56614;-75
2022/12/03 01:08:27;;;;;;;;;40.75;27.75;;;;;7.79;100.00;101456.06;5077270;28;45340;-75
2022/12/03 01:10:53;;;;;;;;;37.50;27.75;;;;;7.81;100.00;101458.75;5076658;28;45626;-76
2022/12/03 01:13:18;;;;;;;;;42.00;28.75;;;;;7.85;100.00;101469.41;5092719;27;47813;-76
2022/12/03 01:15:43;;;;;;;;;28.75;23.00;;;;;7.85;100.00;101455.38;5077484;28;57859;-76
2022/12/03 01:18:09;;;;;;;;;36.75;27.25;;;;;7.81;100.00;101457.00;5059383;28;49664;-76
2022/12/03 01:20:35;;;;;;;;;32.75;21.25;;;;;7.83;100.00;101457.06;5060261;28;45172;-76
2022/12/03 01:23:01;;;;;;;;;26.50;23.75;;;;;7.79;100.00;101456.06;5077874;28;46462;-76
2022/12/03 01:25:26;;;;;;;;;32.00;25.50;;;;;7.81;100.00;101461.38;5077313;28;45406;-76
2022/12/03 01:27:51;;;;;;;;;23.75;19.75;;;;;7.81;100.00;101461.38;5076656;28;45314;-76
2022/12/03 01:30:17;;;;;;;;;33.50;26.50;;;;;7.82;100.00;101453.53;5078151;28;45229;-76
2022/12/03 01:32:42;;;;;;;;;38.00;28.50;;;;;7.79;100.00;101450.81;5058089;28;45905;-76
2022/12/03 01:35:08;;;;;;;;;31.25;20.25;;;;;7.80;100.00;101454.34;5058143;28;61945;-76
2022/12/03 01:37:33;;;;;;;;;39.00;25.00;;;;;7.78;100.00;101453.41;5077491;28;45321;-76
2022/12/03 01:39:59;;;;;;;;;44.00;29.75;;;;;7.79;100.00;101456.06;5059593;28;45320;-76
2022/12/03 01:42:26;;;;;;;;;46.75;27.50;;;;;7.80;100.00;101452.59;5073511;28;66002;-76
2022/12/03 01:44:54;;;;;;;;;31.75;24.50;;;;;7.81;100.00;101451.75;5075967;28;45350;-76
2022/12/03 01:47:23;;;;;;;;;43.50;28.00;;;;;7.81;100.00;101462.25;5059301;28;45374;-75
2022/12/03 01:50:05;;;;;;;;;29.75;27.25;;;;;7.80;100.00;101457.84;5059356;28;45381;-76
2022/12/03 01:52:34;;;;;;;;;39.00;27.25;;;;;7.82;100.00;101461.41;5077424;28;46670;-76
2022/12/03 01:55:02;;;;;;;;;40.75;26.50;;;;;7.82;100.00;101466.66;5059206;28;45431;-76
2022/12/03 01:57:41;;;;;;;;;30.00;21.50;;;;;7.82;100.00;101461.41;5077288;28;45301;-76
2022/12/03 02:00:12;;;;;;;;;27.00;18.25;;;;;7.78;100.00;101467.44;5091614;27;45442;-76
2022/12/03 02:02:38;;;;;;;;;34.75;30.50;;;;;7.80;100.00;101464.84;5076269;27;46653;-76
2022/12/03 02:05:21;;;;;;;;;38.00;24.75;;;;;7.82;100.00;101468.41;5058801;28;45501;-76
2022/12/03 02:07:47;;;;;;;;;31.00;24.75;;;;;7.82;100.00;101464.03;5059316;28;45272;-76
2022/12/03 02:10:14;;;;;;;;;35.75;28.00;;;;;7.84;100.00;101467.63;5073894;28;45404;-76
2022/12/03 02:12:57;;;;;;;;;34.50;23.75;;;;;7.83;100.00;101464.97;5059085;28;46724;-76
2022/12/03 02:15:23;;;;;;;;;44.50;28.75;;;;;7.84;100.00;101466.75;5058820;28;45373;-76
2022/12/03 02:17:48;;;;;;;;;39.75;25.25;;;;;7.81;100.00;101467.50;5058917;28;45491;-76
2022/12/03 02:20:14;;;;;;;;;32.25;23.50;;;;;7.81;100.00;101464.88;5058418;28;60884;-76
2022/12/03 02:22:44;;;;;;;;;22.25;15.25;;;;;7.79;100.00;101466.59;5058527;28;46590;-76
2022/12/03 02:25:19;;;;;;;;;41.50;27.75;;;;;7.79;100.00;101461.31;5075467;28;45388;-75
2022/12/03 02:27:46;;;;;;;;;40.50;27.75;;;;;7.83;100.00;101468.47;5054027;28;45394;-76
2022/12/03 02:30:13;;;;;;;;;35.25;29.00;;;;;7.82;100.00;101464.03;5076466;28;45213;-76
2022/12/03 02:32:38;;;;;;;;;37.00;28.75;;;;;7.80;100.00;101455.22;5076565;28;46033;-75
2022/12/03 02:35:04;;;;;;;;;35.25;21.75;;;;;7.82;100.00;101450.88;5057275;28;63415;-76
2022/12/03 02:37:32;;;;;;;;;33.25;25.75;;;;;7.83;100.00;101454.44;5076781;28;45463;-76
2022/12/03 02:39:59;;;;;;;;;45.25;29.25;;;;;7.81;100.00;101450.84;5058906;28;45548;-76
2022/12/03 02:42:36;;;;;;;;;33.50;23.25;;;;;7.82;100.00;101450.88;5071057;28;45481;-76
2022/12/03 02:45:12;;;;;;;;;36.50;28.00;;;;;7.83;100.00;101457.06;5059614;28;45249;-76
2022/12/03 02:47:42;;;;;;;;;32.50;25.25;;;;;7.81;100.00;101451.75;5058703;28;45261;-76
2022/12/03 02:50:08;;;;;;;;;42.50;24.25;;;;;7.83;100.00;101455.34;5076553;27;45406;-76
2022/12/03 02:52:34;;;;;;;;;30.50;27.25;;;;;7.85;100.00;101448.38;5073684;28;45902;-76
2022/12/03 02:55:02;;;;;;;;;33.50;29.00;;;;;7.86;100.00;101454.53;5074502;28;64184;-75
2022/12/03 02:57:27;;;;;;;;;35.25;28.00;;;;;7.83;100.00;101444.81;5060966;28;45350;-76
2022/12/03 02:59:52;;;;;;;;;24.25;21.25;;;;;7.86;100.00;101447.53;5075709;28;58898;-76
2022/12/03 03:02:18;;;;;;;;;36.00;25.00;;;;;7.86;100.00;101442.25;5075827;28;64843;-76
2022/12/03 03:04:43;;;;;;;;;34.00;24.00;;;;;7.87;100.00;101441.41;5057720;28;57380;-75
2022/12/03 03:07:09;;;;;;;;;34.25;21.50;;;;;7.84;100.00;101433.44;5053481;28;58926;-76
2022/12/03 03:09:34;;;;;;;;;32.00;23.25;;;;;7.87;100.00;101432.63;5068089;28;45258;-76
2022/12/03 03:12:00;;;;;;;;;30.25;25.50;;;;;7.82;100.00;101423.72;5058314;28;46450;-76
2022/12/03 03:14:25;;;;;;;;;36.25;26.25;;;;;7.82;100.00;101427.22;5078173;28;46965;-76
2022/12/03 03:16:54;;;;;;;;;41.00;24.25;;;;;7.80;100.00;101431.56;5061515;28;45568;-76
2022/12/03 03:19:27;;;;;;;;;44.75;28.25;;;;;7.79;100.00;101431.53;5062642;28;45452;-76
2022/12/03 03:21:53;;;;;;;;;25.00;22.00;;;;;7.79;100.00;101440.28;5061558;28;47317;-76
2022/12/03 03:24:19;;;;;;;;;34.25;26.75;;;;;7.77;100.00;101441.97;5061426;28;45359;-76
2022/12/03 03:26:45;;;;;;;;;34.50;23.75;;;;;7.77;100.00;101441.06;5079513;28;45280;-76
2022/12/03 03:29:10;;;;;;;;;32.50;20.00;;;;;7.75;100.00;101432.25;5079991;28;45430;-75
2022/12/03 03:31:36;;;;;;;;;31.75;23.50;;;;;7.78;100.00;101442.88;5059836;28;66517;-76
2022/12/03 03:34:01;;;;;;;;;28.75;23.25;;;;;7.78;100.00;101450.78;5079214;28;51320;-76
2022/12/03 03:36:27;;;;;;;;;39.25;29.25;;;;;7.76;100.00;101445.44;5078923;28;62472;-75
2022/12/03 03:38:52;;;;;;;;;32.50;22.50;;;;;7.78;100.00;101449.03;5077691;28;53753;-76
2022/12/03 03:41:19;;;;;;;;;28.75;26.50;;;;;7.76;100.00;101447.19;5056706;28;70387;-76
2022/12/03 03:43:46;;;;;;;;;35.75;21.00;;;;;7.79;100.00;101447.28;5060533;28;60230;-76
2022/12/03 03:46:12;;;;;;;;;37.25;23.75;;;;;7.77;100.00;101446.34;5043969;28;59485;-76
2022/12/03 03:48:38;;;;;;;;;28.50;24.50;;;;;7.78;100.00;101440.25;5078515;27;61342;-76
2022/12/03 03:51:08;;;;;;;;;30.75;26.25;;;;;7.73;100.00;101442.72;5059988;28;46031;-75
2022/12/03 03:53:37;;;;;;;;;22.25;13.50;;;;;7.74;100.00;101436.63;5061654;28;45359;-76
2022/12/03 03:56:02;;;;;;;;;29.25;27.00;;;;;7.70;100.00;101424.22;5076860;27;45513;-76
2022/12/03 03:58:28;;;;;;;;;28.25;16.50;;;;;7.73;100.00;101426.97;5078493;28;45477;-76
2022/12/03 04:00:53;;;;;;;;;27.75;23.00;;;;;7.71;100.00;101412.84;5060140;28;64073;-75
2022/12/03 04:03:18;;;;;;;;;29.75;21.00;;;;;7.75;100.00;101438.41;5077075;28;58366;-76
2022/12/03 04:05:44;;;;;;;;;27.00;22.50;;;;;7.75;100.00;101430.53;5060388;28;54032;-76
2022/12/03 04:08:09;;;;;;;;;30.00;23.50;;;;;7.77;100.00;101436.72;5061353;28;45442;-76
2022/12/03 04:13:18;;;;;;;;;30.25;20.75;;;;;7.78;100.00;101438.53;5078578;28;45294;-76
2022/12/03 04:15:44;;;;;;;;;28.00;23.75;;;;;7.78;100.00;101435.88;5078358;28;54850;-76
2022/12/03 04:22:38;;;;;;;;;26.50;20.25;;;;;7.80;100.00;101434.19;5063357;28;45878;-76
2022/12/03 04:23:38;;;;;;;;;26.25;18.25;;;;;7.79;100.00;101429.78;5078589;28;45290;-76
2022/12/03 04:28:50;;;;;;;;;39.00;27.75;;;;;7.77;100.00;101427.94;5079119;28;45261;-76
2022/12/03 04:36:43;;;;;;;;;31.25;20.50;;;;;7.74;100.00;101415.59;5063757;28;45481;-76
2022/12/03 04:39:08;;;;;;;;;20.50;20.50;;;;;7.72;100.00;101408.50;5077969;28;54236;-76
2022/12/03 04:41:33;;;;;;;;;35.75;24.00;;;;;7.77;100.00;101414.78;5071530;28;66789;-76
2022/12/03 04:46:43;;;;;;;;;30.50;18.75;;;;;7.78;100.00;101420.13;5078438;28;45367;-76
2022/12/03 04:49:08;;;;;;;;;26.25;20.25;;;;;7.78;100.00;101413.97;5078184;27;45628;-76
2022/12/03 04:51:33;;;;;;;;;30.50;21.25;;;;;7.77;100.00;101412.16;5076934;28;65129;-76
2022/12/03 04:53:59;;;;;;;;;32.50;19.75;;;;;7.80;100.00;101407.91;5077429;28;64284;-76
2022/12/03 04:56:24;;;;;;;;;26.50;21.25;;;;;7.78;100.00;101406.97;5059334;28;62281;-76
2022/12/03 04:58:49;;;;;;;;;29.75;19.25;;;;;7.76;100.00;101405.13;5077338;28;51944;-76
2022/12/03 05:01:15;;;;;;;;;21.25;16.75;;;;;7.75;100.00;101420.00;5077508;28;59788;-76
2022/12/03 05:03:40;;;;;;;;;28.50;22.25;;;;;7.72;100.00;101417.25;5077088;28;59659;-76
2022/12/03 05:06:05;;;;;;;;;31.50;20.00;;;;;7.71;100.00;101412.84;5077664;28;55978;-75
2022/12/03 05:08:31;;;;;;;;;25.75;19.75;;;;;7.74;100.00;101422.59;5084265;27;45194;-76
2022/12/03 05:10:56;;;;;;;;;21.50;15.00;;;;;7.74;100.00;101415.59;5073088;28;47017;-76
2022/12/03 05:13:21;;;;;;;;;26.50;19.50;;;;;7.71;100.00;101412.84;5076012;28;60126;-75
2022/12/03 05:15:47;;;;;;;;;16.50;16.50;;;;;7.73;100.00;101416.44;5059293;28;56065;-76
2022/12/03 05:18:12;;;;;;;;;21.50;19.25;;;;;7.74;100.00;101404.19;5076912;28;56951;-76
2022/12/03 05:20:40;;;;;;;;;26.75;20.50;;;;;7.71;100.00;101401.47;5077696;28;46521;-76
2022/12/03 05:23:09;;;;;;;;;25.50;19.50;;;;;7.74;100.00;101406.81;5077152;28;45274;-76
2022/12/03 05:25:35;;;;;;;;;26.00;17.00;;;;;7.72;100.00;101409.38;5059594;28;45418;-76
2022/12/03 05:28:00;;;;;;;;;33.75;25.50;;;;;7.73;100.00;101408.56;5077596;28;45402;-76
2022/12/03 05:30:25;;;;;;;;;27.75;16.75;;;;;7.70;100.00;101405.81;5059216;28;60100;-76
2022/12/03 05:32:51;;;;;;;;;20.25;17.75;;;;;7.69;100.00;101393.53;5055607;28;59050;-76
2022/12/03 05:35:16;;;;;;;;;27.50;21.50;;;;;7.72;100.00;101406.75;5068773;28;45362;-76
2022/12/03 05:37:42;;;;;;;;;27.50;19.00;;;;;7.71;100.00;101396.19;5074589;28;45501;-76
2022/12/03 05:40:08;;;;;;;;;24.50;19.00;;;;;7.72;100.00;101408.50;5057514;28;58574;-75
2022/12/03 05:45:18;;;;;;;;;22.75;18.75;;;;;7.72;100.00;101417.25;5062199;28;45309;-76
2022/12/03 05:47:43;;;;;;;;;25.50;18.50;;;;;7.70;100.00;101410.19;5077763;28;45212;-76
2022/12/03 05:50:09;;;;;;;;;23.50;19.25;;;;;7.71;100.00;101404.09;5077170;27;45782;-75
2022/12/03 05:52:34;;;;;;;;;22.00;17.25;;;;;7.69;100.00;101406.66;5077594;28;45292;-76
2022/12/03 05:54:59;;;;;;;;;24.00;20.25;;;;;7.70;100.00;101400.56;5076212;28;45285;-76
2022/12/03 05:57:25;;;;;;;;;21.00;18.00;;;;;7.71;100.00;101401.47;5076605;28;45375;-76
2022/12/03 05:59:50;;;;;;;;;22.25;19.00;;;;;7.72;100.00;101392.72;5081118;27;68675;-76
2022/12/03 06:02:15;;;;;;;;;22.75;15.25;;;;;7.67;100.00;101402.19;5076557;28;61146;-75
2022/12/03 06:04:41;;;;;;;;;31.00;23.75;;;;;7.67;100.00;101405.75;5058068;28;58365;-76
2022/12/03 06:07:06;;;;;;;;;22.50;16.50;;;;;7.72;100.00;101395.34;5058454;28;56649;-76
2022/12/03 06:09:31;;;;;;;;;19.50;15.75;;;;;7.71;100.00;101412.84;5072293;28;62382;-76
2022/12/03 06:11:57;;;;;;;;;31.75;18.75;;;;;7.71;100.00;101394.47;5076273;28;62937;-76
2022/12/03 06:14:23;;;;;;;;;24.25;20.25;;;;;7.68;100.00;101389.13;5058155;28;60984;-76
2022/12/03 06:16:48;;;;;;;;;26.00;22.25;;;;;7.69;100.00;101396.16;5076650;28;45537;-75
2022/12/03 06:19:13;;;;;;;;;25.00;19.50;;;;;7.68;100.00;101398.75;5076076;28;62982;-76
2022/12/03 06:21:39;;;;;;;;;25.25;21.75;;;;;7.69;100.00;101392.66;5073982;28;62552;-76
2022/12/03 06:24:04;;;;;;;;;19.00;17.00;;;;;7.69;100.00;101400.53;5056298;28;57716;-76
2022/12/03 06:26:30;;;;;;;;;24.50;19.25;;;;;7.69;100.00;101398.78;5076440;28;45632;-76
2022/12/03 06:28:55;;;;;;;;;25.50;21.50;;;;;7.70;100.00;101399.69;5075772;28;59745;-76
2022/12/03 06:31:20;;;;;;;;;28.75;19.75;;;;;7.66;100.00;101385.53;5075727;28;58995;-75
2022/12/03 06:33:46;;;;;;;;;23.75;17.50;;;;;7.68;100.00;101399.63;5058477;28;56443;-76
2022/12/03 06:36:11;;;;;;;;;21.50;15.75;;;;;7.66;100.00;101397.78;5076536;28;56283;-76
2022/12/03 06:38:36;;;;;;;;;27.50;20.25;;;;;7.67;100.00;101395.22;5058613;28;47337;-76
2022/12/03 06:41:02;;;;;;;;;16.50;16.00;;;;;7.69;100.00;101395.28;5076356;28;45403;-76
2022/12/03 06:43:27;;;;;;;;;26.25;19.50;;;;;7.68;100.00;101397.00;5076795;28;45227;-76
2022/12/03 06:45:52;;;;;;;;;23.00;18.75;;;;;7.69;100.00;101392.66;5076196;28;54705;-76
2022/12/03 06:48:18;;;;;;;;;27.50;20.75;;;;;7.69;100.00;101390.91;5056169;27;63193;-76
2022/12/03 06:50:43;;;;;;;;;32.25;20.00;;;;;7.64;100.00;101388.97;5061293;28;58029;-76
2022/12/03 06:53:08;;;;;;;;;14.50;11.50;;;;;7.62;100.00;101381.06;5080041;28;45540;-76
2022/12/03 06:55:34;;;;;;;;;24.50;18.50;;;;;7.66;100.00;101396.06;5061469;28;55829;-76
2022/12/03 06:57:59;;;;;;;;;24.25;18.50;;;;;7.66;100.00;101393.41;5074167;28;64127;-76
2022/12/03 07:00:24;;;;;;;;;24.00;16.00;;;;;7.66;100.00;101398.69;5059579;28;56410;-76
2022/12/03 07:02:50;;;;;;;;;27.25;18.00;;;;;7.66;100.00;101388.16;5072940;28;58719;-77
2022/12/03 07:05:15;;;;;;;;;25.75;17.25;;;;;7.63;100.00;101401.22;5248691;22;46435;-76
2022/12/03 07:07:41;;;;;;;;;27.00;19.75;;;;;7.65;100.00;101411.78;5123139;27;46289;-75
2022/12/03 07:10:06;;;;;;;;;21.50;16.25;;;;;7.66;100.00;101411.81;5140951;27;62285;-75
2022/12/03 07:12:32;;;;;;;;;18.25;16.75;;;;;7.67;100.00;101416.25;5140803;27;45539;-75
2022/12/03 07:14:57;;;;;;;;;27.50;18.25;;;;;7.70;100.00;101404.94;5140972;27;46530;-76
2022/12/03 07:17:23;;;;;;;;;22.50;14.75;;;;;7.67;100.00;101395.22;5140955;27;55757;-75
2022/12/03 07:19:48;;;;;;;;;24.50;19.50;;;;;7.69;100.00;101404.03;5140118;27;45679;-75
2022/12/03 07:22:14;;;;;;;;;29.50;16.50;;;;;7.70;100.00;101407.56;5139499;27;63214;-75
2022/12/03 07:24:39;;;;;;;;;26.75;19.00;;;;;7.67;100.00;101397.84;5141585;27;45556;-75
2022/12/03 07:27:04;;;;;;;;;23.00;15.25;;;;;7.68;100.00;101402.25;5139516;27;45339;-75
2022/12/03 07:29:30;;;;;;;;;24.00;18.25;;;;;7.71;100.00;101409.34;5138452;27;56159;-75
2022/12/03 07:31:55;;;;;;;;;18.50;17.75;;;;;7.71;100.00;101406.72;5140150;27;45340;-75
2022/12/03 07:34:20;;;;;;;;;25.25;17.50;;;;;7.68;100.00;101407.53;5141601;27;45500;-75
2022/12/03 07:36:46;;;;;;;;;32.75;23.50;;;;;7.71;100.00;101410.22;5141388;27;45454;-75
2022/12/03 07:39:12;;;;;;;;;24.50;19.50;;;;;7.73;100.00;101410.31;5122786;27;45320;-75
2022/12/03 07:41:37;;;;;;;;;27.25;14.75;;;;;7.73;100.00;101416.44;5138106;27;45433;-76
2022/12/03 07:44:02;;;;;;;;;23.50;17.75;;;;;7.73;100.00;101416.44;5114935;27;45688;-76
2022/12/03 07:46:28;;;;;;;;;29.50;19.00;;;;;7.74;100.00;101414.72;5136397;27;47549;-75
2022/12/03 07:48:53;;;;;;;;;21.50;15.50;;;;;7.76;100.00;101411.28;5117947;27;62063;-75
2022/12/03 07:51:18;;;;;;;;;24.50;15.00;;;;;7.74;100.00;101423.47;5140794;27;57548;-76
2022/12/03 07:53:44;;;;;;;;;26.50;20.25;;;;;7.76;100.00;101429.66;5138801;27;45629;-75
2022/12/03 07:56:09;;;;;;;;;21.25;17.25;;;;;7.76;100.00;101420.91;5139544;27;48366;-75
2022/12/03 07:58:35;;;;;;;;;27.00;17.75;;;;;7.74;100.00;101415.59;5140811;27;45282;-75
2022/12/03 08:01:00;;;;;;;;;27.75;18.25;;;;;7.75;100.00;101414.75;5133569;27;59154;-75
2022/12/03 08:03:25;;;;;;;;;21.75;15.00;;;;;7.80;100.00;101426.31;5137709;27;45577;-75
2022/12/03 08:05:51;;;;;;;;;26.50;17.75;;;;;7.77;100.00;101420.94;5121061;27;46531;-75
2022/12/03 08:08:16;;;;;;;;;21.75;18.00;;;;;7.75;100.00;101427.88;5139317;27;54471;-76
2022/12/03 08:10:42;;;;;;;;;17.00;13.25;;;;;7.76;100.00;101424.41;5139339;27;60836;-74
2022/12/03 08:13:13;;;;;;;;;20.50;18.75;;;;;7.78;100.00;101425.38;5138757;27;57666;-76
2022/12/03 08:15:39;;;;;;;;;18.50;14.50;;;;;7.77;100.00;101431.44;5139607;27;45658;-76
2022/12/03 08:18:12;;;;;;;;;22.50;16.00;;;;;7.81;100.00;101424.56;5125381;27;54770;-77
2022/12/03 08:20:39;;;;;;;;;25.50;16.75;;;;;7.81;100.00;101414.03;5124626;27;45410;-77
2022/12/03 08:23:16;;;;;;;;;24.25;18.00;;;;;7.84;100.00;101416.78;5119798;27;45687;-76
2022/12/03 08:25:42;;;;;;;;;19.25;15.25;;;;;7.83;100.00;101410.63;5120826;27;47623;-76
2022/12/03 08:28:13;;;;;;;;;23.25;14.00;;;;;7.87;100.00;101408.97;5120726;27;45454;-76
2022/12/03 08:30:40;;;;;;;;;14.50;11.00;;;;;7.87;100.00;101403.72;5121326;27;45291;-76
2022/12/03 08:33:16;;;;;;;;;17.50;15.75;;;;;7.89;100.00;101415.19;5138728;27;45397;-76
2022/12/03 08:35:48;;;;;;;;;20.50;14.00;;;;;7.87;100.00;101409.88;5113159;27;46254;-75
2022/12/03 08:38:14;;;;;;;;;12.50;12.00;;;;;7.85;100.00;101408.06;5126921;27;45496;-73
2022/12/03 08:40:45;;;;;;;;;18.50;15.50;;;;;7.71;100.00;101394.47;5129886;27;59884;-73
2022/12/03 08:43:15;;;;;;;;;26.25;15.75;;;;;7.60;100.00;101406.38;5114419;27;45674;-74
2022/12/03 08:45:41;;;;;;;;;16.00;16.00;;;;;7.55;100.00;101406.22;5119326;27;45841;-73
2022/12/03 08:48:21;;;;;;;;;16.00;11.50;;;;;7.54;100.00;101414.94;5139008;27;45441;-73
2022/12/03 08:50:47;;;;;;;;;16.50;15.00;;;;;7.49;100.00;101413.91;5136057;27;45340;-72
2022/12/03 08:53:12;;;;;;;;;19.25;14.00;;;;;7.46;100.00;101416.44;5121051;27;47751;-73
2022/12/03 08:55:41;;;;;;;;;24.50;17.25;;;;;7.44;100.00;101404.97;5137582;27;45735;-74
2022/12/03 08:58:33;;;;;;;;;23.00;15.50;;;;;7.43;100.00;101404.94;5119233;27;45555;-74
2022/12/03 09:01:11;;;;;;;;;23.25;16.00;;;;;7.41;100.00;101404.91;5116012;27;45721;-73
2022/12/03 09:03:38;;;;;;;;;27.75;18.00;;;;;7.45;100.00;101413.75;5125867;27;45849;-73
2022/12/03 09:06:04;;;;;;;;;16.00;15.00;;;;;7.45;100.00;101405.88;5117865;27;46911;-73
2022/12/03 09:08:29;;;;;;;;;19.25;14.50;;;;;7.46;100.00;101411.19;5120067;27;45441;-73
2022/12/03 09:10:54;;;;;;;;;18.50;17.00;;;;;7.48;100.00;101403.34;5136295;27;45625;-73
2022/12/03 09:13:20;;;;;;;;;14.25;11.25;;;;;7.49;100.00;101405.13;5130379;27;46474;-76
2022/12/03 09:15:45;;;;;;;;;8.00;7.50;;;;;7.51;100.00;101399.09;5134451;27;47361;-76
2022/12/03 09:18:10;;;;;;;;;13.75;11.25;;;;;7.52;100.00;101398.25;5134134;27;45514;-77
2022/12/03 09:20:36;;;;;;;;;18.00;13.50;;;;;7.60;100.00;101394.13;5118720;27;61250;-77
2022/12/03 09:23:01;;;;;;;;;23.50;13.00;;;;;7.67;100.00;101402.19;5134485;27;51293;-75
2022/12/03 09:25:27;;;;;;;;;15.00;11.00;;;;;7.70;100.00;101395.31;5132307;27;45712;-77
2022/12/03 09:27:52;;;;;;;;;19.50;11.50;;;;;7.77;100.00;101399.91;5136365;27;45514;-76
2022/12/03 09:30:18;;;;;;;;;11.00;11.00;;;;;7.80;100.00;101393.88;5138106;27;45551;-77
2022/12/03 09:32:43;;;;;;;;;16.25;12.75;;;;;7.79;100.00;101398.22;5137672;27;45383;-74
2022/12/03 09:35:09;;;;;;;;;16.25;11.75;;;;;7.81;100.00;101399.16;5138838;27;58366;-76
2022/12/03 09:37:34;;;;;;;;;16.00;13.75;;;;;7.84;100.00;101396.66;5120524;27;45363;-76
2022/12/03 09:39:59;;;;;;;;;25.50;16.25;;;;;7.87;100.00;101401.97;5139462;27;45309;-76
2022/12/03 09:42:25;;;;;;;;;43.25;36.25;;;;;7.89;100.00;101402.06;5136650;27;45665;-75
2022/12/03 09:44:50;;;;;;;;;37.50;27.00;;;;;7.93;100.00;101408.28;5134700;27;46811;-76
2022/12/03 09:47:16;;;;;;;;;18.50;14.50;;;;;7.93;100.00;101400.38;5137643;27;45335;-76
2022/12/03 09:49:41;;;;;;;;;21.00;17.50;;;;;7.95;100.00;101402.22;5118318;27;45558;-76
2022/12/03 09:52:07;;;;;;;;;18.50;13.00;;;;;8.00;100.00;101405.00;5117223;27;45593;-76
2022/12/03 09:54:33;;;;;;;;;14.00;12.00;;;;;8.02;100.00;101404.19;5116193;27;45731;-76
2022/12/03 09:57:01;;;;;;;;;20.50;12.50;;;;;8.03;100.00;101410.34;5139434;27;45564;-76
2022/12/03 09:59:31;;;;;;;;;20.50;12.25;;;;;8.03;100.00;101410.34;5143020;27;45436;-75
2022/12/03 10:01:57;;;;;;;;;15.50;13.75;;;;;8.03;100.00;101405.97;5131713;27;46829;-76
2022/12/03 10:04:23;;;;;;;;;15.75;12.50;;;;;8.01;100.00;101402.41;5129253;27;47041;-76
2022/12/03 10:06:49;;;;;;;;;17.75;12.00;;;;;8.04;100.00;101401.59;5115135;27;45379;-75
2022/12/03 10:09:22;;;;;;;;;11.50;8.25;;;;;8.05;100.00;101396.41;5106905;27;45471;-76
2022/12/03 10:11:47;;;;;;;;;15.75;15.75;;;;;8.07;100.00;101393.81;5117573;27;45405;-77
2022/12/03 10:14:13;;;;;;;;;14.75;11.00;;;;;8.09;100.00;101390.38;5111887;27;61075;-75
2022/12/03 10:16:40;;;;;;;;;14.50;11.75;;;;;8.13;100.00;101388.75;5111843;27;45487;-75
2022/12/03 10:19:05;;;;;;;;;18.00;12.00;;;;;8.15;100.00;101384.44;5113652;27;45331;-76
2022/12/03 10:21:34;;;;;;;;;23.00;15.00;;;;;8.19;100.00;101372.25;5115658;27;47236;-75
2022/12/03 10:24:17;;;;;;;;;18.00;11.00;;;;;8.21;100.00;101376.72;5118290;27;48114;-76
2022/12/03 10:26:44;;;;;;;;;16.50;13.50;;;;;8.24;100.00;101379.41;5118475;27;45578;-75
2022/12/03 10:29:17;;;;;;;;;17.25;12.25;;;;;8.25;100.00;101364.53;5118532;27;45498;-77
2022/12/03 10:31:43;;;;;;;;;15.50;12.00;;;;;8.26;100.00;101364.59;5119617;27;45411;-75
2022/12/03 10:34:09;;;;;;;;;13.25;11.50;;;;;8.32;100.00;101364.75;5119436;27;51721;-77
2022/12/03 10:36:34;;;;;;;;;15.50;11.75;;;;;8.35;100.00;101358.69;5118945;27;45379;-76
2022/12/03 10:39:11;;;;;;;;;17.25;12.50;;;;;8.37;100.00;101359.66;5121129;27;45292;-76
2022/12/03 10:41:37;;;;;;;;;17.75;12.50;;;;;8.37;100.00;101354.41;5119949;27;45507;-76
2022/12/03 10:44:31;;;;;;;;;26.25;20.25;;;;;8.38;100.00;101357.06;5117209;27;47034;-77
2022/12/03 10:47:05;;;;;;;;;15.50;11.25;;;;;8.38;100.00;101362.34;5110832;27;45462;-77
2022/12/03 10:49:31;;;;;;;;;14.00;11.25;;;;;8.38;100.00;101346.53;5117805;27;45356;-75
2022/12/03 10:51:57;;;;;;;;;11.25;9.25;;;;;8.39;100.00;101353.59;5120996;27;45471;-76
2022/12/03 10:54:24;;;;;;;;;20.50;13.50;;;;;8.39;100.00;101348.31;5118120;27;59598;-77
2022/12/03 10:56:50;;;;;;;;;11.75;10.50;;;;;8.42;100.00;101339.63;5120425;27;45448;-76
2022/12/03 10:59:20;;;;;;;;;15.25;11.75;;;;;8.43;100.00;101349.31;5131342;27;45344;-77
2022/12/03 11:01:45;;;;;;;;;15.00;11.50;;;;;8.42;100.00;101338.75;5116465;27;45476;-77
2022/12/03 11:04:22;;;;;;;;;9.75;9.50;;;;;8.42;100.00;101341.38;5109796;27;46250;-77
2022/12/03 11:06:48;;;;;;;;;9.50;8.25;;;;;8.43;100.00;101340.53;5117961;27;45188;-77
2022/12/03 11:09:19;;;;;;;;;12.50;11.50;;;;;8.44;100.00;101345.81;5121274;27;45277;-77
2022/12/03 11:11:44;;;;;;;;;14.00;10.75;;;;;8.42;100.00;101330.84;5118716;27;45294;-78
2022/12/03 11:14:10;;;;;;;;;8.25;8.25;;;;;8.43;100.00;101328.25;5099874;27;45709;-77
2022/12/03 11:16:38;;;;;;;;;20.00;10.00;;;;;8.46;100.00;101337.97;5107734;27;46052;-78
2022/12/03 11:19:14;;;;;;;;;15.50;12.25;;;;;8.46;100.00;101338.84;5112091;27;45796;-75
2022/12/03 11:22:05;;;;;;;;;13.50;10.75;;;;;8.49;100.00;101332.81;5111230;27;45642;-75
2022/12/03 11:24:38;;;;;;;;;15.75;12.25;;;;;8.49;100.00;101328.44;5110344;27;46657;-76
2022/12/03 11:27:03;;;;;;;;;20.25;14.25;;;;;8.51;100.00;101331.97;5110047;27;45794;-76